Time;durP1;ratioP1;P1;durP2;ratioP2;P2;SDS_P1;SDS_P2;PMS_P1;PMS_P2;Temp;Humidity;BMP_temperature;BMP_pressure;BME280_temperature;BME280_humidity;BME280_pressure;Samples;Min_cycle;Max_cycle;Signal;HPM_P1;HPM_P2
2022/09/15 00:01:13;;;;;;;9.18;3.50;;;17.30;97.30;;;;;;5073574;28;20307;-73
2022/09/15 00:03:40;;;;;;;6.35;2.97;;;17.30;97.40;;;;;;5090982;28;20024;-73
2022/09/15 00:06:06;;;;;;;7.78;3.40;;;17.30;97.40;;;;;;5093731;28;20024;-72
2022/09/15 00:08:32;;;;;;;9.60;3.40;;;17.30;97.50;;;;;;5090122;28;20098;-72
2022/09/15 00:11:05;;;;;;;9.73;3.75;;;17.30;97.50;;;;;;5089524;28;20039;-72
2022/09/15 00:13:30;;;;;;;8.02;3.42;;;17.30;97.60;;;;;;5090577;28;20040;-72
2022/09/15 00:15:56;;;;;;;5.38;2.92;;;17.30;97.60;;;;;;5080418;28;20029;-73
2022/09/15 00:18:22;;;;;;;9.52;3.47;;;17.20;97.60;;;;;;5084317;28;20032;-72
2022/09/15 00:20:47;;;;;;;7.20;3.75;;;17.20;97.60;;;;;;5092418;28;20112;-72
2022/09/15 00:23:14;;;;;;;9.15;4.63;;;17.20;97.70;;;;;;5091955;28;20074;-72
2022/09/15 00:25:50;;;;;;;4.53;2.70;;;17.20;97.80;;;;;;5093245;28;20499;-72
2022/09/15 00:28:18;;;;;;;5.55;2.58;;;17.20;97.90;;;;;;5086822;28;20028;-72
2022/09/15 00:30:46;;;;;;;8.73;3.88;;;17.10;97.80;;;;;;5088326;28;20048;-72
2022/09/15 00:33:13;;;;;;;7.55;3.05;;;17.10;97.90;;;;;;5081944;28;20036;-72
2022/09/15 00:35:41;;;;;;;6.90;3.13;;;17.20;98.00;;;;;;5072655;28;20016;-71
2022/09/15 00:38:09;;;;;;;4.47;2.78;;;17.10;97.90;;;;;;5079560;28;20287;-71
2022/09/15 00:40:43;;;;;;;7.22;3.72;;;17.10;98.00;;;;;;5087796;28;20032;-72
2022/09/15 00:43:09;;;;;;;;;;;17.10;98.00;;;;;;5083361;28;20099;-72
2022/09/15 00:45:35;;;;;;;7.32;3.03;;;17.10;97.70;;;;;;5096129;28;19955;-71
2022/09/15 00:48:03;;;;;;;6.80;2.65;;;17.00;97.90;;;;;;5080204;28;20055;-73
2022/09/15 00:50:29;;;;;;;7.55;2.97;;;17.00;98.00;;;;;;5093015;28;20093;-72
2022/09/15 00:52:59;;;;;;;6.80;3.05;;;17.00;98.10;;;;;;5091237;28;20039;-71
2022/09/15 00:55:33;;;;;;;10.32;4.18;;;17.10;98.20;;;;;;5093028;28;20077;-71
2022/09/15 00:58:05;;;;;;;8.73;3.33;;;17.00;98.20;;;;;;5089750;28;20032;-71
2022/09/15 01:00:32;;;;;;;8.18;3.25;;;17.00;98.20;;;;;;5092206;28;20036;-72
2022/09/15 01:02:58;;;;;;;6.22;2.90;;;16.90;98.20;;;;;;5080758;28;20039;-72
2022/09/15 01:05:49;;;;;;;9.18;3.38;;;17.00;98.30;;;;;;5092428;28;20024;-71
2022/09/15 01:08:47;;;;;;;8.05;2.90;;;16.90;98.30;;;;;;5080066;28;20039;-71
2022/09/15 01:11:15;;;;;;;4.70;2.78;;;16.90;98.40;;;;;;5071122;28;20021;-71
2022/09/15 01:13:42;;;;;;;7.68;3.25;;;16.80;98.40;;;;;;5091366;28;20044;-71
2022/09/15 01:16:28;;;;;;;6.03;3.05;;;16.80;98.40;;;;;;5091819;28;20521;-72
2022/09/15 01:19:00;;;;;;;6.82;3.17;;;16.80;98.50;;;;;;5090048;28;20032;-72
2022/09/15 01:21:49;;;;;;;7.45;2.75;;;16.70;98.60;;;;;;5092484;28;20024;-71
2022/09/15 01:24:41;;;;;;;5.50;2.92;;;16.80;98.60;;;;;;5091200;28;20020;-72
2022/09/15 01:27:13;;;;;;;6.18;2.72;;;16.70;98.70;;;;;;5090981;28;20036;-71
2022/09/15 01:30:09;;;;;;;9.32;3.47;;;16.60;98.80;;;;;;5100413;28;20028;-71
2022/09/15 01:33:18;;;;;;;7.70;3.25;;;16.70;98.80;;;;;;5090946;28;20036;-72
2022/09/15 01:35:58;;;;;;;7.55;2.97;;;16.60;98.90;;;;;;4999918;28;20161;-72
2022/09/15 01:38:35;;;;;;;5.93;3.15;;;16.60;98.90;;;;;;5008555;28;20133;-72
2022/09/15 01:41:12;;;;;;;7.43;3.30;;;16.60;99.00;;;;;;5048885;28;20029;-73
2022/09/15 01:43:47;;;;;;;4.95;3.03;;;16.50;99.00;;;;;;5076879;28;20032;-72
2022/09/15 01:46:15;;;;;;;6.60;2.75;;;16.50;99.00;;;;;;5072595;28;20480;-72
2022/09/15 01:48:42;;;;;;;4.50;2.80;;;16.50;99.10;;;;;;5097375;28;20083;-72
2022/09/15 01:51:08;;;;;;;9.32;3.28;;;16.50;99.20;;;;;;5091320;28;20061;-72
2022/09/15 01:53:34;;;;;;;4.85;2.88;;;16.50;99.20;;;;;;5103410;28;20040;-73
2022/09/15 01:56:00;;;;;;;7.97;4.13;;;16.50;99.20;;;;;;5110972;28;20352;-72
2022/09/15 01:58:25;;;;;;;5.28;2.92;;;16.50;99.30;;;;;;5079683;28;20111;-73
2022/09/15 02:01:00;;;;;;;8.50;3.28;;;16.40;99.30;;;;;;5077785;28;20032;-72
2022/09/15 02:03:32;;;;;;;6.22;3.28;;;16.50;99.40;;;;;;5088692;28;20036;-72
2022/09/15 02:06:06;;;;;;;8.63;3.28;;;16.50;99.40;;;;;;5091664;28;20131;-71
2022/09/15 02:08:46;;;;;;;7.15;2.78;;;16.40;99.40;;;;;;5078654;28;20032;-72
2022/09/15 02:11:18;;;;;;;6.10;2.90;;;16.40;99.40;;;;;;5072317;28;20024;-72
2022/09/15 02:14:10;;;;;;;7.00;3.42;;;16.40;99.50;;;;;;5090508;28;20129;-72
2022/09/15 02:16:39;;;;;;;10.48;3.28;;;16.40;99.50;;;;;;5090204;28;20036;-72
2022/09/15 02:19:16;;;;;;;9.00;3.38;;;16.40;99.40;;;;;;5082856;28;20085;-72
2022/09/15 02:21:53;;;;;;;7.25;3.22;;;16.40;99.40;;;;;;5075557;28;20028;-72
2022/09/15 02:24:28;;;;;;;6.38;3.22;;;16.40;99.40;;;;;;5090802;28;20036;-72
2022/09/15 02:26:54;;;;;;;5.40;2.90;;;16.40;99.40;;;;;;5090009;28;20562;-72
2022/09/15 02:29:21;;;;;;;6.03;2.97;;;16.40;99.50;;;;;;5091162;28;20074;-73
2022/09/15 02:31:51;;;;;;;7.13;3.15;;;16.40;99.60;;;;;;5084158;28;20048;-72
2022/09/15 02:34:23;;;;;;;6.60;3.50;;;16.40;99.60;;;;;;5073340;28;20029;-72
2022/09/15 02:36:51;;;;;;;5.50;2.67;;;16.40;99.60;;;;;;5087823;28;20048;-72
2022/09/15 02:39:19;;;;;;;7.07;2.80;;;16.40;99.60;;;;;;5091003;28;20119;-72
2022/09/15 02:41:45;;;;;;;7.72;3.50;;;16.40;99.60;;;;;;5091552;28;20027;-72
2022/09/15 02:44:10;;;;;;;5.38;2.90;;;16.40;99.60;;;;;;5091063;28;20433;-72
2022/09/15 02:46:36;;;;;;;5.03;3.17;;;16.40;99.60;;;;;;5092980;28;20651;-73
2022/09/15 02:49:02;;;;;;;6.88;3.03;;;16.40;99.50;;;;;;5097504;28;20380;-72
2022/09/15 02:51:28;;;;;;;8.18;3.08;;;16.40;99.50;;;;;;5094310;28;20047;-72
2022/09/15 02:53:53;;;;;;;7.70;3.08;;;16.40;99.50;;;;;;5093329;28;20040;-72
2022/09/15 02:56:19;;;;;;;8.10;3.35;;;16.30;99.50;;;;;;5094383;28;20058;-72
2022/09/15 02:58:45;;;;;;;6.40;2.80;;;16.30;99.60;;;;;;5093265;28;20093;-72
2022/09/15 03:01:15;;;;;;;7.28;3.08;;;16.30;99.60;;;;;;5095068;28;20024;-71
2022/09/15 03:03:43;;;;;;;8.02;3.17;;;16.30;99.60;;;;;;5089090;28;20119;-71
2022/09/15 03:06:15;;;;;;;7.38;3.08;;;16.30;99.60;;;;;;5094555;28;20079;-71
2022/09/15 03:08:53;;;;;;;8.43;3.47;;;16.30;99.60;;;;;;5079650;28;20039;-71
2022/09/15 03:11:21;;;;;;;8.13;3.47;;;16.20;99.70;;;;;;5074991;28;20032;-71
2022/09/15 03:13:51;;;;;;;5.78;3.60;;;16.20;99.70;;;;;;5089803;28;20585;-73
2022/09/15 03:16:16;;;;;;;6.72;3.50;;;16.20;99.70;;;;;;5094867;28;20537;-72
2022/09/15 03:18:42;;;;;;;8.20;3.63;;;16.10;99.70;;;;;;5092928;28;20157;-72
2022/09/15 03:21:12;;;;;;;8.20;3.47;;;16.10;99.80;;;;;;5092938;28;20028;-71
2022/09/15 03:23:38;;;;;;;6.70;4.07;;;16.10;99.90;;;;;;5080127;28;20033;-72
2022/09/15 03:26:04;;;;;;;9.55;3.55;;;16.00;99.90;;;;;;5081502;28;20028;-72
2022/09/15 03:28:30;;;;;;;8.32;3.90;;;16.00;99.90;;;;;;5080829;28;20033;-72
2022/09/15 03:30:56;;;;;;;8.27;3.80;;;16.00;99.90;;;;;;5080340;28;20044;-72
2022/09/15 03:33:23;;;;;;;7.80;3.42;;;16.00;99.90;;;;;;5080505;28;20403;-73
2022/09/15 03:35:50;;;;;;;12.95;4.47;;;16.00;99.90;;;;;;5087462;28;20059;-72
2022/09/15 03:38:15;;;;;;;9.23;3.25;;;16.00;99.90;;;;;;5082932;28;20107;-73
2022/09/15 03:40:44;;;;;;;6.38;3.60;;;16.00;99.90;;;;;;5085385;28;20501;-73
2022/09/15 03:43:11;;;;;;;8.15;3.88;;;15.90;99.90;;;;;;5089805;28;20028;-73
2022/09/15 03:45:37;;;;;;;9.18;4.38;;;16.00;99.90;;;;;;5093547;28;20032;-72
2022/09/15 03:48:04;;;;;;;6.32;3.25;;;15.90;99.90;;;;;;5096721;28;20094;-71
2022/09/15 03:50:30;;;;;;;8.25;4.10;;;15.90;99.90;;;;;;5093840;28;20545;-72
2022/09/15 03:52:59;;;;;;;6.07;3.42;;;15.90;99.90;;;;;;5092375;28;20036;-72
2022/09/15 03:55:24;;;;;;;7.53;3.58;;;15.90;99.90;;;;;;5093500;28;20028;-72
2022/09/15 03:57:50;;;;;;;10.23;4.13;;;15.90;99.90;;;;;;5090102;28;20137;-72
2022/09/15 04:00:15;;;;;;;6.85;3.75;;;15.90;99.90;;;;;;5093769;28;20107;-72
2022/09/15 04:02:41;;;;;;;5.72;3.53;;;15.80;99.90;;;;;;5087525;28;20563;-72
2022/09/15 04:05:06;;;;;;;10.85;4.65;;;15.80;99.90;;;;;;5080491;28;20020;-73
2022/09/15 04:07:33;;;;;;;9.23;3.33;;;15.80;99.90;;;;;;5087685;28;20028;-73
2022/09/15 04:09:59;;;;;;;7.38;3.60;;;15.80;99.90;;;;;;5079564;28;20080;-72
2022/09/15 04:12:25;;;;;;;6.28;3.42;;;15.80;99.90;;;;;;5089702;28;20028;-72
2022/09/15 04:14:51;;;;;;;9.88;3.95;;;15.80;99.90;;;;;;5076932;28;20549;-71
2022/09/15 04:17:17;;;;;;;9.30;3.92;;;15.80;99.90;;;;;;5092344;28;20038;-71
2022/09/15 04:19:42;;;;;;;8.25;3.50;;;15.80;99.90;;;;;;5089143;28;20020;-72
2022/09/15 04:22:08;;;;;;;5.28;3.25;;;15.70;99.90;;;;;;5093365;28;20502;-72
2022/09/15 04:24:35;;;;;;;6.45;3.65;;;15.70;99.90;;;;;;5092468;28;20111;-72
2022/09/15 04:27:00;;;;;;;9.38;4.00;;;15.70;99.90;;;;;;5094823;28;20020;-72
2022/09/15 04:29:26;;;;;;;5.72;3.83;;;15.70;99.90;;;;;;5093969;28;20028;-72
2022/09/15 04:31:52;;;;;;;7.07;3.72;;;15.60;99.90;;;;;;5087564;28;20051;-73
2022/09/15 04:34:18;;;;;;;5.78;3.60;;;15.60;99.90;;;;;;5081546;28;20032;-73
2022/09/15 04:36:43;;;;;;;6.82;3.67;;;15.60;99.90;;;;;;5092115;28;20020;-72
2022/09/15 04:39:09;;;;;;;6.55;3.60;;;15.70;99.90;;;;;;5073481;28;20107;-73
2022/09/15 04:41:34;;;;;;;6.07;3.67;;;15.70;99.90;;;;;;5072300;28;20027;-72
2022/09/15 04:44:00;;;;;;;7.18;3.55;;;15.70;99.90;;;;;;5088700;28;20024;-72
2022/09/15 04:46:26;;;;;;;8.80;3.58;;;15.60;99.90;;;;;;5091355;28;20020;-72
2022/09/15 04:48:52;;;;;;;7.13;3.40;;;15.60;99.90;;;;;;5075181;28;20199;-73
2022/09/15 04:51:21;;;;;;;6.43;3.50;;;15.60;99.90;;;;;;5085470;28;20028;-72
2022/09/15 04:53:47;;;;;;;7.43;3.38;;;15.60;99.90;;;;;;5091582;28;20080;-72
2022/09/15 04:56:21;;;;;;;6.80;3.60;;;15.60;99.90;;;;;;5092066;28;20078;-73
2022/09/15 04:58:56;;;;;;;7.70;3.97;;;15.60;99.90;;;;;;5092051;28;20483;-71
2022/09/15 05:01:24;;;;;;;6.70;3.55;;;15.60;99.90;;;;;;5090553;28;20044;-72
2022/09/15 05:03:50;;;;;;;6.40;3.97;;;15.60;99.90;;;;;;5091529;28;20032;-72
2022/09/15 05:06:18;;;;;;;8.68;4.43;;;15.50;99.90;;;;;;5091757;28;20028;-72
2022/09/15 05:08:49;;;;;;;6.78;4.07;;;15.50;99.90;;;;;;5076928;28;20472;-71
2022/09/15 05:11:15;;;;;;;9.60;3.92;;;15.50;99.90;;;;;;5085867;28;20115;-72
2022/09/15 05:13:41;;;;;;;9.43;4.70;;;15.50;99.90;;;;;;5091878;28;20044;-73
2022/09/15 05:16:10;;;;;;;5.78;3.60;;;15.60;99.90;;;;;;5091000;28;20114;-73
2022/09/15 05:18:36;;;;;;;6.85;3.72;;;15.60;99.90;;;;;;5077112;28;20028;-72
2022/09/15 05:21:04;;;;;;;7.38;4.07;;;15.60;99.90;;;;;;5092197;28;20428;-71
2022/09/15 05:23:30;;;;;;;8.63;4.53;;;15.60;99.90;;;;;;5091590;28;20043;-71
2022/09/15 05:26:00;;;;;;;9.27;4.63;;;15.60;99.90;;;;;;5091379;28;20382;-72
2022/09/15 05:28:26;;;;;;;8.25;4.35;;;15.60;99.90;;;;;;5091397;28;20097;-72
2022/09/15 05:30:53;;;;;;;7.13;3.85;;;15.60;99.90;;;;;;5080849;28;20524;-71
2022/09/15 05:33:21;;;;;;;7.25;4.80;;;15.60;99.90;;;;;;5091378;28;20104;-71
2022/09/15 05:35:54;;;;;;;9.93;4.18;;;15.60;99.90;;;;;;5091520;28;20020;-72
2022/09/15 05:38:21;;;;;;;6.72;4.47;;;15.70;99.90;;;;;;5085891;28;20059;-72
2022/09/15 05:40:46;;;;;;;8.57;4.00;;;15.70;99.90;;;;;;5090086;28;20016;-71
2022/09/15 05:43:12;;;;;;;5.80;4.10;;;15.70;99.90;;;;;;5090184;28;20028;-72
2022/09/15 05:45:41;;;;;;;7.18;4.20;;;15.70;99.90;;;;;;5089724;28;20032;-72
2022/09/15 05:48:07;;;;;;;7.50;4.25;;;15.70;99.90;;;;;;5090987;28;20056;-72
2022/09/15 05:50:33;;;;;;;7.00;3.75;;;15.80;99.90;;;;;;5091312;28;20399;-72
2022/09/15 05:52:58;;;;;;;8.23;4.95;;;15.70;99.90;;;;;;5090494;28;20040;-72
2022/09/15 05:55:24;;;;;;;8.18;4.57;;;15.70;99.90;;;;;;5089679;28;20038;-72
2022/09/15 05:57:49;;;;;;;6.05;3.80;;;15.80;99.90;;;;;;5085736;28;20029;-72
2022/09/15 06:00:15;;;;;;;8.68;4.15;;;15.80;99.90;;;;;;5091972;28;20099;-72
2022/09/15 06:02:41;;;;;;;6.55;4.15;;;15.80;99.90;;;;;;5085215;28;20025;-72
2022/09/15 06:05:07;;;;;;;9.30;4.07;;;15.90;99.90;;;;;;5080248;28;20028;-72
2022/09/15 06:07:33;;;;;;;6.97;3.97;;;15.90;99.90;;;;;;5085829;28;20039;-72
2022/09/15 06:09:58;;;;;;;7.45;4.25;;;16.00;99.90;;;;;;5079637;28;20478;-72
2022/09/15 06:12:24;;;;;;;7.18;3.88;;;16.10;99.90;;;;;;5083576;28;20549;-72
2022/09/15 06:14:51;;;;;;;7.43;3.42;;;16.00;99.90;;;;;;5089601;28;20467;-71
2022/09/15 06:17:17;;;;;;;9.07;3.97;;;16.00;99.90;;;;;;5091127;28;20103;-72
2022/09/15 06:19:42;;;;;;;12.23;3.60;;;16.10;99.90;;;;;;5089462;28;20173;-71
2022/09/15 06:22:08;;;;;;;7.47;3.22;;;16.20;99.90;;;;;;5083728;28;20043;-72
2022/09/15 06:24:33;;;;;;;8.52;3.50;;;16.20;99.90;;;;;;5091778;28;20025;-71
2022/09/15 06:26:59;;;;;;;5.30;3.00;;;16.30;99.90;;;;;;5095022;28;20031;-71
2022/09/15 06:29:25;;;;;;;7.53;2.80;;;16.30;99.90;;;;;;5087231;28;20633;-72
2022/09/15 06:31:50;;;;;;;4.45;3.35;;;16.30;99.90;;;;;;5087741;28;20040;-74
2022/09/15 06:34:16;;;;;;;5.30;2.90;;;16.40;99.90;;;;;;5090954;28;20106;-76
2022/09/15 06:36:41;;;;;;;10.32;3.25;;;16.40;99.90;;;;;;5093452;28;20024;-73
2022/09/15 06:39:07;;;;;;;6.95;3.47;;;16.50;99.90;;;;;;5090098;28;20463;-72
2022/09/15 06:41:33;;;;;;;8.68;3.28;;;16.60;99.90;;;;;;5094189;28;20281;-73
2022/09/15 06:43:58;;;;;;;5.70;2.95;;;16.60;99.70;;;;;;5088261;28;20103;-73
2022/09/15 06:46:25;;;;;;;7.72;2.85;;;16.70;99.60;;;;;;5083158;28;20034;-72
2022/09/15 06:48:52;;;;;;;6.70;2.80;;;16.70;99.50;;;;;;5091330;28;20139;-72
2022/09/15 06:51:21;;;;;;;9.65;3.33;;;16.80;99.40;;;;;;5094264;28;20115;-73
2022/09/15 06:53:47;;;;;;;6.88;3.30;;;16.90;99.40;;;;;;5092807;28;20036;-73
2022/09/15 06:56:20;;;;;;;8.23;2.70;;;16.90;99.40;;;;;;5078440;28;20383;-72
2022/09/15 06:58:49;;;;;;;6.75;3.00;;;17.00;99.20;;;;;;5081071;28;20024;-73
2022/09/15 07:01:24;;;;;;;6.88;3.17;;;17.00;99.20;;;;;;5084555;28;20090;-74
2022/09/15 07:03:50;;;;;;;;;;;17.00;99.00;;;;;;5092206;28;20083;-73
2022/09/15 07:06:16;;;;;;;4.32;2.60;;;17.10;99.20;;;;;;5090182;28;20020;-73
2022/09/15 07:08:42;;;;;;;10.07;4.68;;;17.10;99.10;;;;;;5090413;28;20016;-72
2022/09/15 07:11:09;;;;;;;10.13;3.50;;;17.20;99.00;;;;;;5086376;28;20490;-73
2022/09/15 07:13:35;;;;;;;5.45;3.15;;;17.30;98.80;;;;;;5087434;28;20037;-72
2022/09/15 07:16:02;;;;;;;6.35;3.20;;;17.30;98.80;;;;;;5074292;28;20056;-72
2022/09/15 07:18:29;;;;;;;5.43;2.85;;;17.40;98.70;;;;;;5080423;28;20588;-74
2022/09/15 07:20:59;;;;;;;5.70;2.80;;;17.50;98.60;;;;;;5085764;28;20490;-73
2022/09/15 07:23:25;;;;;;;6.13;2.80;;;17.50;98.50;;;;;;5089138;28;20522;-72
2022/09/15 07:25:51;;;;;;;5.18;3.03;;;17.60;98.50;;;;;;5089646;28;20036;-74
2022/09/15 07:28:16;;;;;;;4.65;2.80;;;17.60;98.40;;;;;;5083386;28;20550;-72
2022/09/15 07:30:43;;;;;;;7.07;3.45;;;17.70;98.30;;;;;;5081162;28;20076;-69
2022/09/15 07:33:12;;;;;;;7.75;2.75;;;17.70;98.20;;;;;;5079190;28;20123;-69
2022/09/15 07:35:42;;;;;;;6.63;2.88;;;17.80;98.20;;;;;;5087268;28;20028;-71
2022/09/15 07:38:08;;;;;;;7.43;2.85;;;17.80;98.10;;;;;;5083078;28;20115;-68
2022/09/15 07:40:34;;;;;;;7.55;2.97;;;17.90;97.90;;;;;;5090805;28;20461;-69
2022/09/15 07:42:59;;;;;;;7.03;2.83;;;17.90;97.80;;;;;;5092134;28;20020;-69
2022/09/15 07:45:25;;;;;;;5.22;3.50;;;17.90;97.80;;;;;;5091341;28;20028;-69
2022/09/15 07:47:50;;;;;;;4.47;2.75;;;17.80;97.50;;;;;;5090964;28;20060;-69
2022/09/15 07:50:16;;;;;;;6.05;3.08;;;17.80;97.60;;;;;;5093051;28;20406;-69
2022/09/15 07:52:41;;;;;;;7.22;3.05;;;17.90;97.60;;;;;;5091791;28;20478;-70
2022/09/15 07:55:08;;;;;;;7.05;2.63;;;17.90;97.50;;;;;;5092457;28;20042;-69
2022/09/15 07:57:34;;;;;;;4.60;2.67;;;18.00;97.50;;;;;;5089811;28;20394;-70
2022/09/15 07:59:59;;;;;;;6.60;3.03;;;18.00;97.30;;;;;;5092820;28;20024;-70
2022/09/15 08:02:25;;;;;;;6.22;2.55;;;18.10;97.30;;;;;;5091748;28;20032;-70
2022/09/15 08:04:52;;;;;;;6.97;2.92;;;18.10;97.30;;;;;;5093332;28;20107;-69
2022/09/15 08:07:17;;;;;;;7.75;2.70;;;18.10;97.20;;;;;;5091817;28;20052;-70
2022/09/15 08:09:43;;;;;;;6.28;2.60;;;18.10;97.30;;;;;;5093387;28;20063;-69
2022/09/15 08:12:09;;;;;;;6.28;2.72;;;18.20;97.30;;;;;;5091956;28;20028;-69
2022/09/15 08:14:35;;;;;;;4.60;2.50;;;18.20;97.10;;;;;;5092971;28;20913;-69
2022/09/15 08:17:03;;;;;;;5.97;2.70;;;18.20;97.10;;;;;;5086634;28;20060;-69
2022/09/15 08:19:30;;;;;;;10.55;2.70;;;18.30;97.10;;;;;;5083042;28;20035;-69
2022/09/15 08:21:56;;;;;;;6.03;2.90;;;18.40;97.00;;;;;;5092304;28;20371;-69
2022/09/15 08:24:22;;;;;;;7.68;2.70;;;18.50;96.90;;;;;;5079955;28;20024;-71
2022/09/15 08:26:48;;;;;;;7.35;2.40;;;18.50;96.90;;;;;;5090201;28;20065;-69
2022/09/15 08:29:14;;;;;;;8.48;2.42;;;18.50;96.60;;;;;;5090616;28;20131;-69
2022/09/15 08:31:40;;;;;;;4.03;2.28;;;18.50;96.70;;;;;;5090409;28;20162;-69
2022/09/15 08:34:05;;;;;;;6.13;2.55;;;18.50;96.60;;;;;;5091529;28;20036;-69
2022/09/15 08:36:34;;;;;;;4.22;2.50;;;18.60;96.60;;;;;;5074826;28;20031;-69
2022/09/15 08:39:01;;;;;;;4.95;2.50;;;18.70;96.40;;;;;;5088048;28;20016;-72
2022/09/15 08:41:32;;;;;;;9.60;3.13;;;18.70;96.50;;;;;;5084151;28;20467;-72
2022/09/15 08:44:20;;;;;;;5.68;2.13;;;18.80;96.50;;;;;;5072371;28;20372;-72
2022/09/15 08:46:54;;;;;;;2.92;1.80;;;18.90;96.40;;;;;;5087890;28;20114;-73
2022/09/15 08:49:29;;;;;;;6.50;2.92;;;19.00;96.30;;;;;;5091664;28;20032;-73
2022/09/15 08:51:59;;;;;;;5.95;2.22;;;19.10;96.20;;;;;;5083571;28;20081;-72
2022/09/15 08:54:28;;;;;;;6.28;2.75;;;19.10;96.00;;;;;;5075106;28;20035;-72
2022/09/15 08:56:55;;;;;;;5.65;3.20;;;19.20;96.10;;;;;;5091342;28;20039;-71
2022/09/15 08:59:21;;;;;;;4.60;1.98;;;19.20;95.80;;;;;;5084578;28;20514;-72
2022/09/15 09:02:11;;;;;;;4.50;2.17;;;19.30;95.70;;;;;;5083848;28;20024;-72
2022/09/15 09:05:07;;;;;;;4.55;2.17;;;19.40;95.60;;;;;;5073878;28;20097;-72
2022/09/15 09:08:01;;;;;;;7.07;1.88;;;19.40;95.40;;;;;;5077027;28;20433;-72
2022/09/15 09:10:55;;;;;;;5.22;1.90;;;19.40;95.30;;;;;;5077970;28;20020;-72
2022/09/15 09:13:36;;;;;;;6.15;1.80;;;19.50;95.00;;;;;;5048840;28;20400;-72
2022/09/15 09:16:24;;;;;;;5.25;2.28;;;19.50;95.00;;;;;;5084474;28;20465;-73
2022/09/15 09:19:36;;;;;;;3.90;1.73;;;19.40;94.80;;;;;;5087722;28;20379;-73
2022/09/15 09:22:10;;;;;;;3.97;1.65;;;19.40;94.90;;;;;;5070918;28;20028;-73
2022/09/15 09:24:46;;;;;;;5.65;1.70;;;19.40;94.90;;;;;;5073478;28;20484;-73
2022/09/15 09:27:18;;;;;;;3.95;2.03;;;19.50;94.80;;;;;;5077161;28;20032;-73
2022/09/15 09:29:50;;;;;;;4.57;1.77;;;19.60;94.60;;;;;;5090942;28;20483;-71
2022/09/15 09:32:23;;;;;;;4.18;1.73;;;19.60;94.50;;;;;;5086159;28;20058;-73
2022/09/15 09:35:11;;;;;;;3.95;1.58;;;19.70;94.20;;;;;;5084919;28;20526;-72
2022/09/15 09:37:36;;;;;;;3.60;1.95;;;19.80;94.20;;;;;;5084800;28;20027;-72
2022/09/15 09:40:02;;;;;;;6.55;2.30;;;19.80;94.30;;;;;;5082424;28;20523;-73
2022/09/15 09:42:30;;;;;;;5.25;2.33;;;19.90;93.90;;;;;;5081329;28;20032;-72
2022/09/15 09:44:56;;;;;;;4.82;1.80;;;19.90;93.60;;;;;;5082619;28;20020;-73
2022/09/15 09:47:28;;;;;;;5.10;1.77;;;20.00;93.60;;;;;;5083892;28;20682;-73
2022/09/15 09:49:54;;;;;;;6.40;1.90;;;20.00;93.60;;;;;;5089903;28;20055;-73
2022/09/15 09:52:36;;;;;;;3.30;1.85;;;20.00;93.60;;;;;;5083327;28;20409;-74
2022/09/15 09:55:25;;;;;;;3.85;1.45;;;20.00;93.40;;;;;;5082662;28;20033;-73
2022/09/15 09:57:51;;;;;;;4.38;1.70;;;20.00;93.40;;;;;;5079501;28;20097;-73
2022/09/15 10:00:39;;;;;;;4.00;1.77;;;20.10;93.20;;;;;;5090024;28;20426;-73
2022/09/15 10:03:16;;;;;;;4.70;2.13;;;20.10;93.10;;;;;;5089934;28;20028;-72
2022/09/15 10:05:43;;;;;;;4.78;1.65;;;20.20;92.80;;;;;;5079681;28;20044;-73
2022/09/15 10:08:28;;;;;;;6.18;1.63;;;20.10;92.70;;;;;;5072462;28;20105;-72
2022/09/15 10:10:59;;;;;;;3.53;1.70;;;20.10;92.80;;;;;;5074972;28;20032;-72
2022/09/15 10:13:25;;;;;;;3.38;1.67;;;20.20;92.70;;;;;;5081529;28;20056;-73
2022/09/15 10:15:59;;;;;;;4.63;2.25;;;20.20;92.80;;;;;;5086501;28;20035;-73
2022/09/15 10:18:30;;;;;;;6.20;1.70;;;20.30;92.70;;;;;;5098272;28;20108;-73
2022/09/15 10:20:56;;;;;;;4.85;1.67;;;20.40;92.70;;;;;;5084776;28;20028;-72
2022/09/15 10:26:19;;;;;;;4.93;1.48;;;20.50;92.30;;;;;;5992730;22;20049;-74
2022/09/15 10:29:12;;;;;;;4.45;1.88;;;20.50;92.30;;;;;;5044445;28;20164;-74
2022/09/15 10:31:38;;;;;;;3.20;1.40;;;20.60;92.30;;;;;;5019611;28;20380;-73
2022/09/15 10:34:23;;;;;;;3.72;1.48;;;20.60;92.00;;;;;;5023346;28;20175;-73
2022/09/15 10:36:48;;;;;;;4.30;2.13;;;20.50;90.70;;;;;;5042503;28;20076;-73
2022/09/15 10:39:47;;;;;;;3.72;1.30;;;20.40;90.90;;;;;;5041807;28;20037;-73
2022/09/15 10:42:22;;;;;;;3.40;1.63;;;20.40;90.60;;;;;;5031082;28;20033;-72
2022/09/15 10:45:17;;;;;;;3.75;1.33;;;20.30;89.60;;;;;;5027503;28;20033;-72
2022/09/15 10:48:10;;;;;;;3.70;1.30;;;20.30;90.50;;;;;;5018812;28;20026;-73
2022/09/15 10:51:26;;;;;;;2.38;1.38;;;20.40;90.30;;;;;;5027744;28;20043;-72
2022/09/15 10:54:29;;;;;;;3.10;1.20;;;20.50;90.70;;;;;;5008018;28;20046;-72
2022/09/15 10:57:30;;;;;;;5.38;1.38;;;20.60;89.90;;;;;;5029006;28;20044;-73
2022/09/15 11:00:02;;;;;;;5.03;1.55;;;20.60;89.70;;;;;;5008467;28;20041;-73
2022/09/15 11:02:50;;;;;;;4.55;1.30;;;20.70;88.50;;;;;;5031210;28;20044;-72
2022/09/15 11:05:32;;;;;;;3.97;1.65;;;20.70;87.50;;;;;;5028737;28;20294;-72
2022/09/15 11:08:37;;;;;;;3.38;1.73;;;20.70;88.20;;;;;;5025497;28;20033;-72
2022/09/15 11:11:35;;;;;;;4.10;1.63;;;20.70;88.60;;;;;;5021015;28;20208;-72
2022/09/15 11:14:09;;;;;;;3.67;1.55;;;20.70;88.70;;;;;;5033655;28;20043;-73
2022/09/15 11:16:56;;;;;;;6.32;1.60;;;20.70;87.90;;;;;;5029811;28;20026;-72
2022/09/15 11:19:39;;;;;;;3.22;1.30;;;20.60;87.00;;;;;;5030289;28;20065;-72
2022/09/15 11:22:16;;;;;;;2.10;1.10;;;20.60;87.40;;;;;;5026276;28;20582;-73
2022/09/15 11:24:59;;;;;;;4.15;1.45;;;20.50;87.60;;;;;;5016032;28;20116;-72
2022/09/15 11:27:32;;;;;;;4.35;1.52;;;20.40;86.90;;;;;;5032267;28;20466;-73
2022/09/15 11:30:15;;;;;;;2.78;1.40;;;20.40;87.10;;;;;;5014533;28;20109;-73
2022/09/15 11:33:03;;;;;;;4.97;1.50;;;20.40;87.30;;;;;;5012058;28;20077;-72
2022/09/15 11:35:49;;;;;;;3.47;1.30;;;20.40;87.20;;;;;;4995820;28;20034;-73
2022/09/15 11:38:47;;;;;;;2.40;1.48;;;20.40;86.70;;;;;;5013457;28;20034;-73
2022/09/15 11:41:19;;;;;;;2.35;1.13;;;20.50;87.20;;;;;;4996018;28;20034;-73
2022/09/15 11:44:13;;;;;;;2.45;1.33;;;20.60;87.00;;;;;;4996225;28;20026;-72
2022/09/15 11:47:06;;;;;;;5.25;1.52;;;20.60;86.50;;;;;;5013197;28;20045;-73
2022/09/15 11:50:00;;;;;;;1.95;1.10;;;20.60;86.40;;;;;;5012927;28;20030;-69
2022/09/15 11:52:53;;;;;;;2.03;1.20;;;20.60;85.90;;;;;;4972368;28;20123;-72
2022/09/15 11:55:37;;;;;;;4.82;1.30;;;20.50;85.60;;;;;;5012286;28;20026;-73
2022/09/15 11:58:34;;;;;;;3.28;1.23;;;20.40;85.70;;;;;;5015538;28;20135;-73
2022/09/15 12:01:21;;;;;;;6.50;1.20;;;20.30;85.80;;;;;;5012453;28;20065;-73
2022/09/15 12:03:58;;;;;;;3.45;1.55;;;20.20;86.00;;;;;;4995320;28;20104;-73
2022/09/15 12:06:50;;;;;;;2.75;1.40;;;20.20;86.50;;;;;;5013266;28;20030;-73
2022/09/15 12:09:19;;;;;;;4.15;1.83;;;20.10;86.50;;;;;;5013345;28;20034;-73
2022/09/15 12:11:51;;;;;;;2.78;1.25;;;20.20;86.60;;;;;;5005853;28;20035;-73
2022/09/15 12:14:45;;;;;;;6.32;1.70;;;20.20;86.10;;;;;;5006511;28;20073;-72
2022/09/15 12:17:30;;;;;;;3.80;1.30;;;20.20;85.40;;;;;;5032018;28;20041;-72
2022/09/15 12:20:11;;;;;;;3.53;2.15;;;20.10;85.30;;;;;;5010253;28;20034;-72
2022/09/15 12:22:57;;;;;;;5.22;1.27;;;20.10;85.80;;;;;;5010470;28;20038;-72
2022/09/15 12:25:37;;;;;;;4.70;1.50;;;20.10;86.10;;;;;;5010238;28;20117;-73
2022/09/15 12:28:21;;;;;;;5.28;1.60;;;20.10;86.30;;;;;;5011116;28;20046;-72
2022/09/15 12:30:58;;;;;;;5.17;1.30;;;20.00;86.30;;;;;;5011100;28;20092;-72
2022/09/15 12:33:44;;;;;;;4.97;1.67;;;20.00;86.50;;;;;;4998221;28;20093;-71
2022/09/15 12:36:40;;;;;;;5.60;1.50;;;19.90;86.40;;;;;;5010010;28;20042;-72
2022/09/15 12:39:36;;;;;;;5.60;1.70;;;19.90;86.30;;;;;;4987053;28;20045;-72
2022/09/15 12:42:25;;;;;;;3.60;1.58;;;19.80;86.50;;;;;;5005200;28;20081;-71
2022/09/15 12:44:56;;;;;;;3.47;1.17;;;19.70;86.20;;;;;;5009001;28;20025;-72
2022/09/15 12:47:43;;;;;;;2.92;1.17;;;19.60;86.60;;;;;;5014954;28;20037;-72
2022/09/15 12:50:15;;;;;;;4.50;1.67;;;19.70;86.70;;;;;;5007655;28;20090;-72
2022/09/15 12:53:00;;;;;;;6.15;1.30;;;19.70;86.60;;;;;;5010890;28;20033;-72
2022/09/15 12:55:34;;;;;;;4.30;1.55;;;19.80;86.70;;;;;;5010546;28;20030;-72
2022/09/15 12:58:08;;;;;;;3.88;1.50;;;19.80;87.10;;;;;;5011279;28;20041;-72
2022/09/15 13:00:35;;;;;;;4.60;1.60;;;19.80;86.70;;;;;;5007134;28;20472;-72
2022/09/15 13:03:03;;;;;;;3.70;1.75;;;19.90;86.70;;;;;;5009965;28;20042;-72
2022/09/15 13:05:41;;;;;;;5.82;1.80;;;19.90;86.20;;;;;;5009346;28;20034;-72
2022/09/15 13:08:14;;;;;;;3.90;1.70;;;20.00;86.30;;;;;;5010021;28;20026;-72
2022/09/15 13:10:42;;;;;;;2.28;1.40;;;20.10;86.80;;;;;;5012633;28;20571;-72
2022/09/15 13:13:25;;;;;;;2.55;1.55;;;20.10;86.40;;;;;;5010934;28;20135;-71
2022/09/15 13:15:53;;;;;;;5.38;1.60;;;20.20;85.10;;;;;;5011425;28;20030;-72
2022/09/15 13:18:20;;;;;;;2.58;1.20;;;20.30;85.20;;;;;;5008161;28;20116;-71